Time;durP1;ratioP1;P1;durP2;ratioP2;P2;SDS_P1;SDS_P2;PMS_P1;PMS_P2;Temp;Humidity;BMP_temperature;BMP_pressure;BME280_temperature;BME280_humidity;BME280_pressure;Samples;Min_cycle;Max_cycle;Signal;HPM_P1;HPM_P2
2021/08/24 00:01:10;;;;;;;4.15;2.60;;;;;;;14.90;89.53;97151.06;5016800;28;20091;-66
2021/08/24 00:03:36;;;;;;;4.13;2.70;;;;;;;14.86;88.97;97146.72;5021484;28;20050;-66
2021/08/24 00:06:01;;;;;;;4.32;2.50;;;;;;;14.85;87.78;97145.91;5020521;28;20144;-65
2021/08/24 00:08:27;;;;;;;6.82;2.78;;;;;;;14.80;88.05;97153.75;5005407;28;20054;-65
2021/08/24 00:10:56;;;;;;;3.15;2.17;;;;;;;14.76;87.82;97158.47;5021585;28;20099;-64
2021/08/24 00:13:23;;;;;;;3.57;2.17;;;;;;;14.75;87.19;97148.59;5014801;28;20060;-64
2021/08/24 00:15:50;;;;;;;3.88;2.58;;;;;;;14.69;87.93;97153.69;5002223;28;20128;-65
2021/08/24 00:18:16;;;;;;;4.32;1.90;;;;;;;14.65;87.69;97159.19;4999508;28;20042;-64
2021/08/24 00:20:45;;;;;;;6.47;2.20;;;;;;;14.68;87.59;97154.88;5009861;28;20060;-65
2021/08/24 00:23:15;;;;;;;6.32;2.55;;;;;;;14.63;87.66;97158.75;5005467;28;20677;-66
2021/08/24 00:25:40;;;;;;;4.57;2.30;;;;;;;14.56;88.39;97166.94;4997883;28;20474;-65
2021/08/24 00:28:07;;;;;;;4.10;2.33;;;;;;;14.51;89.50;97157.09;4977758;28;20317;-66
2021/08/24 00:30:33;;;;;;;4.03;2.58;;;;;;;14.47;89.80;97161.75;5010516;28;20690;-64
2021/08/24 00:32:59;;;;;;;5.80;2.00;;;;;;;14.47;88.88;97167.28;5001443;28;20042;-65
2021/08/24 00:35:24;;;;;;;3.63;2.20;;;;;;;14.41;89.54;97159.75;5002499;28;20446;-65
2021/08/24 00:37:49;;;;;;;3.58;1.80;;;;;;;14.30;87.57;97159.66;5022427;28;20053;-64
2021/08/24 00:40:16;;;;;;;5.30;1.70;;;;;;;14.22;86.93;97158.00;5000311;28;20045;-66
2021/08/24 00:42:44;;;;;;;4.68;1.60;;;;;;;14.13;86.98;97152.78;5003616;28;20046;-66
2021/08/24 00:45:12;;;;;;;2.85;1.77;;;;;;;14.03;86.01;97159.00;5001682;28;20042;-64
2021/08/24 00:47:43;;;;;;;3.05;1.60;;;;;;;13.96;86.69;97160.50;5008587;28;20386;-64
2021/08/24 00:50:23;;;;;;;2.90;1.70;;;;;;;13.86;86.92;97168.66;5016933;28;20068;-65
2021/08/24 00:52:49;;;;;;;4.95;1.80;;;;;;;13.81;86.66;97157.97;5021005;28;20382;-63
2021/08/24 00:55:17;;;;;;;4.72;1.75;;;;;;;13.69;87.60;97145.28;5014931;28;20036;-65
2021/08/24 00:57:47;;;;;;;3.58;2.05;;;;;;;13.58;88.45;97156.94;5021743;28;20045;-62
2021/08/24 01:00:13;;;;;;;4.93;1.92;;;;;;;13.52;88.49;97160.38;5013116;28;20128;-63
2021/08/24 01:02:39;;;;;;;3.80;1.90;;;;;;;13.46;88.45;97150.91;5012447;28;20390;-64
2021/08/24 01:05:05;;;;;;;4.97;2.15;;;;;;;13.38;88.98;97150.81;4996265;28;20041;-64
2021/08/24 01:08:01;;;;;;;3.55;1.90;;;;;;;13.30;89.84;97157.34;5000920;28;20057;-64
2021/08/24 01:10:30;;;;;;;3.30;1.63;;;;;;;13.22;90.80;97166.69;4996382;28;20121;-64
2021/08/24 01:13:24;;;;;;;4.93;1.92;;;;;;;13.18;90.83;97157.56;4999377;28;20034;-64
2021/08/24 01:15:55;;;;;;;4.57;2.15;;;;;;;13.03;92.24;97164.06;5000975;28;20042;-64
2021/08/24 01:18:40;;;;;;;5.82;2.13;;;;;;;12.94;92.10;97151.34;4997894;28;20046;-64
2021/08/24 01:21:29;;;;;;;4.10;2.20;;;;;;;12.90;92.73;97144.25;5014876;28;20056;-65
2021/08/24 01:24:08;;;;;;;3.53;2.15;;;;;;;12.85;92.73;97150.84;5003686;28;20041;-64
2021/08/24 01:26:59;;;;;;;3.42;2.13;;;;;;;12.75;93.74;97146.00;5019867;28;20565;-63
2021/08/24 01:29:43;;;;;;;3.85;2.00;;;;;;;12.70;93.87;97147.09;5001957;28;20658;-64
2021/08/24 01:32:23;;;;;;;3.50;2.15;;;;;;;12.60;94.50;97137.53;5012517;28;20410;-64
2021/08/24 01:34:57;;;;;;;3.35;2.10;;;;;;;12.59;94.37;97141.44;5018786;28;20049;-62
2021/08/24 01:37:46;;;;;;;3.88;2.40;;;;;;;12.67;93.38;97133.28;5013712;28;20497;-63
2021/08/24 01:40:17;;;;;;;3.22;1.90;;;;;;;12.69;93.43;97148.25;4992646;28;20399;-64
2021/08/24 01:42:44;;;;;;;3.75;2.20;;;;;;;12.65;93.06;97139.16;5005740;28;20402;-64
2021/08/24 01:45:22;;;;;;;2.63;1.90;;;;;;;12.67;93.13;97147.81;5011585;28;20128;-65
2021/08/24 01:47:53;;;;;;;3.88;2.30;;;;;;;12.62;93.69;97148.13;5003783;28;20041;-63
2021/08/24 01:50:44;;;;;;;3.78;2.08;;;;;;;12.57;93.89;97143.75;5001296;28;20061;-62
2021/08/24 01:53:12;;;;;;;3.70;2.30;;;;;;;12.58;94.06;97142.56;5003487;28;20518;-65
2021/08/24 01:55:43;;;;;;;5.65;2.25;;;;;;;12.53;94.41;97145.66;4988675;28;20037;-64
2021/08/24 01:58:18;;;;;;;3.30;2.10;;;;;;;12.51;94.75;97145.22;5007014;28;20057;-63
2021/08/24 02:00:48;;;;;;;3.15;1.88;;;;;;;12.56;94.28;97152.38;5009471;28;20394;-64
2021/08/24 02:03:21;;;;;;;4.20;2.10;;;;;;;12.47;95.10;97151.84;5001647;28;20042;-62
2021/08/24 02:05:52;;;;;;;2.42;1.50;;;;;;;12.54;95.71;97155.47;5012188;28;20041;-65
2021/08/24 02:08:29;;;;;;;3.22;1.80;;;;;;;12.53;95.15;97150.34;5014418;28;20046;-63
2021/08/24 02:10:56;;;;;;;4.97;1.30;;;;;;;12.54;95.13;97162.94;5008256;28;20050;-63
2021/08/24 02:13:27;;;;;;;5.30;1.90;;;;;;;12.40;95.65;97147.78;5002829;28;20457;-64
2021/08/24 02:15:55;;;;;;;5.05;1.80;;;;;;;12.42;95.27;97147.44;5000485;28;20069;-62
2021/08/24 02:18:26;;;;;;;5.05;1.88;;;;;;;12.35;95.56;97152.81;4993108;28;20038;-65
2021/08/24 02:21:01;;;;;;;2.65;1.55;;;;;;;12.26;96.44;97147.56;5009392;28;20044;-62
2021/08/24 02:23:31;;;;;;;3.17;1.90;;;;;;;12.24;96.62;97150.69;5013161;28;20048;-61
2021/08/24 02:25:59;;;;;;;;;;;;;;;12.23;96.50;97153.81;5012497;28;20050;-63
2021/08/24 02:28:32;;;;;;;4.70;2.42;;;;;;;12.24;96.11;97153.44;4997848;28;19921;-64
2021/08/24 02:31:23;;;;;;;4.43;2.30;;;;;;;12.26;96.12;97150.31;5012160;28;20136;-63
2021/08/24 02:33:59;;;;;;;6.00;2.42;;;;;;;12.20;97.09;97141.56;4998668;28;20503;-62
2021/08/24 02:36:25;;;;;;;4.60;2.05;;;;;;;12.20;96.76;97144.31;4999491;28;20057;-63
2021/08/24 02:39:01;;;;;;;3.00;1.80;;;;;;;12.17;97.51;97147.00;5006626;28;20038;-63
2021/08/24 02:41:46;;;;;;;2.88;1.75;;;;;;;12.26;96.93;97150.31;4993587;28;20152;-62
2021/08/24 02:44:15;;;;;;;3.20;1.80;;;;;;;12.29;97.09;97151.53;4993387;28;20524;-62
2021/08/24 02:46:44;;;;;;;3.47;2.13;;;;;;;12.26;97.22;97152.25;4998267;28;20062;-62
2021/08/24 02:49:13;;;;;;;4.50;2.00;;;;;;;12.18;98.02;97152.13;4995111;28;20100;-63
2021/08/24 02:51:40;;;;;;;5.05;2.22;;;;;;;12.20;97.67;97149.03;5001040;28;20042;-64
2021/08/24 02:54:15;;;;;;;3.42;2.05;;;;;;;12.18;97.94;97145.88;5001425;28;20045;-63
2021/08/24 02:56:41;;;;;;;2.88;2.03;;;;;;;12.18;98.44;97145.88;5003791;28;20046;-63
2021/08/24 02:59:06;;;;;;;4.28;1.75;;;;;;;12.31;97.87;97154.72;4997360;28;20092;-62
2021/08/24 03:01:32;;;;;;;2.97;2.00;;;;;;;12.24;97.34;97149.88;5003528;28;20046;-64
2021/08/24 03:03:57;;;;;;;3.20;2.10;;;;;;;12.23;97.73;97145.56;5002365;28;20045;-62
2021/08/24 03:06:23;;;;;;;3.70;2.45;;;;;;;12.20;97.99;97141.56;5010287;28;20042;-64
2021/08/24 03:08:50;;;;;;;3.38;1.67;;;;;;;12.16;98.27;97157.22;5017332;28;20065;-63
2021/08/24 03:11:20;;;;;;;2.85;1.80;;;;;;;12.21;97.47;97150.63;5006680;28;20402;-62
2021/08/24 03:14:00;;;;;;;4.35;1.80;;;;;;;12.15;97.25;97150.13;5023084;28;20132;-61
2021/08/24 03:16:30;;;;;;;3.28;2.40;;;;;;;12.17;97.44;97155.25;5018942;28;20041;-63
2021/08/24 03:19:01;;;;;;;4.40;1.98;;;;;;;12.27;97.39;97154.66;5009055;28;20080;-64
2021/08/24 03:21:31;;;;;;;3.30;2.03;;;;;;;12.37;96.16;97167.78;5008311;28;20046;-64
2021/08/24 03:23:57;;;;;;;3.40;1.75;;;;;;;12.33;96.83;97161.41;5004689;28;20072;-64
2021/08/24 03:26:28;;;;;;;3.70;2.35;;;;;;;12.27;96.35;97159.34;5008604;28;20068;-65
2021/08/24 03:28:55;;;;;;;2.85;1.88;;;;;;;12.18;97.41;97160.38;5015429;28;20049;-65
2021/08/24 03:31:21;;;;;;;3.00;2.08;;;;;;;12.20;97.34;97163.53;5000218;28;20084;-67
2021/08/24 03:33:47;;;;;;;4.95;2.33;;;;;;;12.20;97.75;97158.06;5008066;28;20501;-66
2021/08/24 03:36:13;;;;;;;2.85;1.40;;;;;;;12.24;97.48;97158.13;5037270;28;20474;-65
2021/08/24 03:38:39;;;;;;;3.35;2.15;;;;;;;12.15;97.99;97157.56;5021470;28;20395;-66
2021/08/24 03:41:07;;;;;;;4.90;2.47;;;;;;;12.14;98.11;97148.53;5006047;28;20092;-66
2021/08/24 03:43:33;;;;;;;2.97;2.00;;;;;;;12.18;97.62;97151.34;5020453;28;20785;-66
2021/08/24 03:45:58;;;;;;;4.28;2.08;;;;;;;12.21;97.41;97156.13;4993732;28;20064;-65
2021/08/24 03:48:24;;;;;;;4.05;2.70;;;;;;;12.15;98.21;97152.84;5000131;28;20038;-66
2021/08/24 03:50:49;;;;;;;6.28;2.45;;;;;;;12.12;97.73;97145.38;5014365;28;20490;-66
2021/08/24 03:53:15;;;;;;;4.30;2.45;;;;;;;12.13;97.92;97137.91;5017299;28;20041;-66
2021/08/24 03:55:41;;;;;;;5.22;2.30;;;;;;;12.10;98.42;97146.88;5013329;28;20699;-66
2021/08/24 03:58:07;;;;;;;5.30;2.25;;;;;;;12.10;98.17;97149.63;5016188;28;20048;-66
2021/08/24 04:00:33;;;;;;;3.75;2.75;;;;;;;12.15;97.57;97152.84;4992556;28;20044;-65
2021/08/24 04:02:58;;;;;;;3.67;2.45;;;;;;;12.12;97.86;97163.78;5012649;28;20487;-65
2021/08/24 04:05:23;;;;;;;6.28;2.42;;;;;;;12.12;98.04;97161.84;5012274;28;20524;-66
2021/08/24 04:07:49;;;;;;;3.72;2.08;;;;;;;12.14;98.32;97161.50;5022057;28;20037;-65
2021/08/24 04:10:15;;;;;;;3.58;2.33;;;;;;;12.14;97.98;97165.03;5016760;28;20037;-65
2021/08/24 04:12:41;;;;;;;3.75;2.40;;;;;;;12.13;97.76;97160.69;5029103;28;20041;-66
2021/08/24 04:15:09;;;;;;;4.28;2.60;;;;;;;12.13;98.12;97165.38;5011719;28;20037;-63
2021/08/24 04:17:35;;;;;;;3.40;2.40;;;;;;;12.14;98.06;97159.53;5008932;28;20042;-66
2021/08/24 04:20:04;;;;;;;4.22;2.72;;;;;;;12.12;98.31;97169.28;5016388;28;20049;-66
2021/08/24 04:22:32;;;;;;;3.65;2.45;;;;;;;12.08;98.60;97160.97;5019946;28;20132;-64
2021/08/24 04:24:57;;;;;;;5.63;2.67;;;;;;;12.11;98.05;97151.22;5014323;28;20102;-64
2021/08/24 04:27:23;;;;;;;3.80;2.75;;;;;;;12.05;98.68;97170.75;4996032;28;20272;-64
2021/08/24 04:29:48;;;;;;;4.43;2.85;;;;;;;12.03;98.79;97169.53;5008128;28;20052;-64
2021/08/24 04:32:20;;;;;;;4.68;3.20;;;;;;;12.04;98.77;97168.34;5005035;28;20045;-64
2021/08/24 04:34:46;;;;;;;4.47;3.20;;;;;;;12.04;98.55;97168.34;4995248;28;20046;-64
2021/08/24 04:37:11;;;;;;;5.57;3.22;;;;;;;12.10;98.16;97174.34;5005064;28;20046;-65
2021/08/24 04:39:36;;;;;;;5.00;3.55;;;;;;;12.06;98.16;97182.50;5009901;28;20129;-65
2021/08/24 04:42:02;;;;;;;4.70;3.00;;;;;;;12.07;98.40;97184.13;4998564;28;20037;-66
2021/08/24 04:44:28;;;;;;;5.43;3.50;;;;;;;12.10;98.05;97185.31;5005731;28;20132;-65
2021/08/24 04:46:54;;;;;;;6.63;3.22;;;;;;;12.10;98.35;97183.38;5006896;28;20053;-65
2021/08/24 04:49:20;;;;;;;4.45;3.10;;;;;;;12.13;98.14;97181.84;5005780;28;20116;-65
2021/08/24 04:51:46;;;;;;;5.30;3.22;;;;;;;12.06;98.66;97174.28;5008512;28;20111;-65
2021/08/24 04:54:11;;;;;;;6.32;3.30;;;;;;;12.08;98.32;97168.44;4999092;28;20046;-65
2021/08/24 04:56:37;;;;;;;5.70;3.72;;;;;;;12.17;97.70;97169.78;4999155;28;20046;-66
2021/08/24 04:59:02;;;;;;;4.57;3.28;;;;;;;12.19;97.67;97167.47;4998582;28;20197;-65
2021/08/24 05:01:28;;;;;;;4.53;2.67;;;;;;;12.21;97.80;97172.59;5005712;28;20057;-65
2021/08/24 05:03:53;;;;;;;3.80;2.67;;;;;;;12.18;98.30;97174.09;5008865;28;20041;-65
2021/08/24 05:06:18;;;;;;;3.58;2.60;;;;;;;12.27;97.85;97176.63;5003967;28;20053;-65
2021/08/24 05:08:44;;;;;;;3.92;2.33;;;;;;;12.45;96.71;97179.66;5001289;28;20395;-65
2021/08/24 05:11:09;;;;;;;3.33;2.22;;;;;;;12.51;95.81;97180.16;4995696;28;20045;-64
2021/08/24 05:13:35;;;;;;;4.32;2.00;;;;;;;12.61;94.53;97185.03;4996890;28;20620;-65
2021/08/24 05:16:06;;;;;;;3.40;1.90;;;;;;;12.85;94.10;97188.53;5001380;28;20057;-65
2021/08/24 05:18:31;;;;;;;3.30;1.65;;;;;;;13.25;92.13;97185.16;5011446;28;20045;-65
2021/08/24 05:21:15;;;;;;;4.28;2.05;;;;;;;13.11;91.71;97185.00;5016382;28;20521;-65
2021/08/24 05:23:41;;;;;;;3.25;1.77;;;;;;;13.04;92.59;97190.41;4987907;28;20045;-65
2021/08/24 05:26:10;;;;;;;3.97;2.00;;;;;;;13.33;90.60;97177.84;5014193;28;20472;-65
2021/08/24 05:28:36;;;;;;;2.67;1.33;;;;;;;14.18;88.15;97177.25;5012290;28;20056;-65
2021/08/24 05:31:01;;;;;;;4.03;1.83;;;;;;;15.23;80.92;97174.16;5006310;28;20049;-65
2021/08/24 05:33:27;;;;;;;6.05;1.65;;;;;;;16.23;75.04;97182.03;4995410;28;20045;-65
2021/08/24 05:35:52;;;;;;;2.67;1.42;;;;;;;15.93;75.72;97179.59;5008892;28;20053;-66
2021/08/24 05:38:17;;;;;;;2.42;1.42;;;;;;;15.74;77.44;97186.25;5007100;28;20049;-66
2021/08/24 05:40:43;;;;;;;2.33;1.40;;;;;;;16.23;74.37;97182.03;4999417;28;20451;-65
2021/08/24 05:43:08;;;;;;;2.63;1.67;;;;;;;16.25;74.18;97173.34;4995140;28;20073;-64
2021/08/24 05:45:34;;;;;;;2.63;1.73;;;;;;;15.53;75.86;97180.59;4986962;28;20753;-65
2021/08/24 05:47:59;;;;;;;3.60;2.25;;;;;;;14.60;80.87;97181.56;5014529;28;20045;-64
2021/08/24 05:50:26;;;;;;;4.82;2.80;;;;;;;13.79;84.58;97182.34;5032026;28;20089;-64
2021/08/24 05:52:52;;;;;;;4.93;2.30;;;;;;;13.87;85.95;97187.56;5012123;28;20048;-64
2021/08/24 05:55:18;;;;;;;7.15;2.25;;;;;;;13.69;86.58;97194.81;5013869;28;20038;-65
2021/08/24 05:57:43;;;;;;;4.97;2.70;;;;;;;13.27;89.02;97191.13;5004779;28;20048;-64
2021/08/24 06:00:09;;;;;;;5.30;2.75;;;;;;;13.14;89.71;97195.25;4995883;28;20052;-63
2021/08/24 06:02:36;;;;;;;7.32;2.70;;;;;;;13.27;89.94;97193.06;5004063;28;20419;-65
2021/08/24 06:05:02;;;;;;;5.13;3.05;;;;;;;13.30;88.50;97187.59;5005479;28;20045;-65
2021/08/24 06:07:28;;;;;;;6.43;2.70;;;;;;;13.34;89.65;97201.44;4999142;28;20045;-65
2021/08/24 06:09:53;;;;;;;4.65;2.72;;;;;;;13.38;90.04;97205.84;5007193;28;20372;-65
2021/08/24 06:12:19;;;;;;;5.85;2.75;;;;;;;13.00;90.71;97190.34;4994855;28;20499;-64
2021/08/24 06:14:45;;;;;;;5.50;2.55;;;;;;;13.18;91.57;97199.63;4999390;28;20586;-63
2021/08/24 06:17:10;;;;;;;4.65;2.53;;;;;;;13.44;90.90;97203.53;4998856;28;20050;-65
2021/08/24 06:19:36;;;;;;;4.57;2.63;;;;;;;13.37;90.22;97195.97;5009086;28;20049;-65
2021/08/24 06:22:02;;;;;;;6.93;2.90;;;;;;;13.46;88.68;97189.41;5010718;28;20136;-65
2021/08/24 06:24:30;;;;;;;6.15;2.65;;;;;;;13.55;88.62;97190.72;5013240;28;20037;-64
2021/08/24 06:26:56;;;;;;;3.85;2.38;;;;;;;13.99;85.32;97188.44;5019632;28;20057;-66
2021/08/24 06:29:21;;;;;;;5.63;2.75;;;;;;;13.69;86.50;97184.59;5004640;28;20541;-67
2021/08/24 06:31:50;;;;;;;6.32;2.10;;;;;;;14.23;84.22;97190.69;5007394;28;20479;-66
2021/08/24 06:34:16;;;;;;;5.22;2.70;;;;;;;14.45;82.58;97188.13;4997963;28;20557;-66
2021/08/24 06:36:42;;;;;;;4.90;2.30;;;;;;;14.98;79.76;97190.56;5010734;28;20050;-66
2021/08/24 06:39:08;;;;;;;5.38;2.25;;;;;;;14.80;79.90;97184.91;4996507;28;20073;-66
2021/08/24 06:41:34;;;;;;;5.22;2.08;;;;;;;15.68;77.39;97179.47;5011869;28;20430;-65
2021/08/24 06:43:59;;;;;;;3.25;1.90;;;;;;;15.76;76.85;97186.63;5000987;28;20045;-66
2021/08/24 06:46:25;;;;;;;5.63;1.88;;;;;;;15.00;78.13;97190.97;4998775;28;20401;-64
2021/08/24 06:48:51;;;;;;;4.13;1.95;;;;;;;14.81;79.52;97185.69;5014191;28;20769;-66
2021/08/24 06:51:16;;;;;;;5.82;2.53;;;;;;;15.88;75.89;97179.19;5007192;28;20056;-65
2021/08/24 06:53:41;;;;;;;3.97;2.25;;;;;;;14.42;79.59;97181.41;5021031;28;20072;-65
2021/08/24 06:56:12;;;;;;;4.82;2.00;;;;;;;14.37;81.56;97187.28;5018388;28;20080;-64
2021/08/24 06:58:40;;;;;;;16.05;4.63;;;;;;;13.62;84.81;97187.25;5020026;28;20041;-65
2021/08/24 07:01:05;;;;;;;4.38;2.15;;;;;;;14.05;83.80;97190.50;5001568;28;20053;-66
2021/08/24 07:03:31;;;;;;;6.45;2.72;;;;;;;13.63;84.75;97185.28;5012298;28;20447;-64
2021/08/24 07:05:56;;;;;;;3.83;2.38;;;;;;;13.71;85.68;97192.47;5008727;28;20188;-65
2021/08/24 07:08:22;;;;;;;5.30;2.78;;;;;;;13.44;86.95;97195.28;5000268;28;20519;-65
2021/08/24 07:10:48;;;;;;;4.82;2.97;;;;;;;13.51;87.38;97194.59;5015594;28;20041;-65
2021/08/24 07:13:17;;;;;;;4.47;2.85;;;;;;;13.20;86.86;97183.56;5014602;28;20096;-65
2021/08/24 07:15:43;;;;;;;4.75;2.45;;;;;;;13.10;88.22;97189.69;5016011;28;20047;-65
2021/08/24 07:18:08;;;;;;;7.75;2.60;;;;;;;13.14;88.42;97192.50;5006299;28;20141;-63
2021/08/24 07:20:34;;;;;;;5.82;3.00;;;;;;;13.14;89.50;97187.81;5010146;28;20041;-65
2021/08/24 07:23:01;;;;;;;3.95;2.65;;;;;;;13.35;88.25;97186.53;5006983;28;20144;-65
2021/08/24 07:25:28;;;;;;;7.40;2.78;;;;;;;13.19;88.07;97186.66;5000828;28;20053;-66
2021/08/24 07:27:54;;;;;;;5.05;2.80;;;;;;;13.02;88.83;97190.75;4986644;28;20108;-65
2021/08/24 07:30:20;;;;;;;5.13;3.10;;;;;;;13.05;89.32;97205.72;4997165;28;20053;-64
2021/08/24 07:32:46;;;;;;;5.55;2.80;;;;;;;13.22;87.20;97209.88;5013885;28;20045;-65
2021/08/24 07:35:15;;;;;;;4.75;2.80;;;;;;;12.93;88.81;97206.75;5003509;28;20065;-65
2021/08/24 07:37:40;;;;;;;6.20;3.03;;;;;;;13.06;90.11;97210.06;5022713;28;20042;-65
2021/08/24 07:40:08;;;;;;;7.53;3.10;;;;;;;13.14;89.34;97203.50;5007127;28;20041;-66
2021/08/24 07:42:34;;;;;;;5.97;2.90;;;;;;;13.33;88.79;97213.63;5015474;28;20106;-64
2021/08/24 07:44:59;;;;;;;5.47;3.33;;;;;;;13.11;87.44;97201.50;5020468;28;20600;-65
2021/08/24 07:47:25;;;;;;;4.53;2.50;;;;;;;13.16;89.23;97201.16;5017164;28;20068;-65
2021/08/24 07:49:51;;;;;;;7.68;3.25;;;;;;;13.23;88.58;97195.75;5013757;28;20065;-65
2021/08/24 07:52:17;;;;;;;5.38;2.88;;;;;;;13.22;89.78;97194.19;5002806;28;20041;-65
2021/08/24 07:54:43;;;;;;;6.65;2.92;;;;;;;13.34;88.12;97195.94;5008738;28;20128;-64
2021/08/24 07:57:08;;;;;;;5.00;2.88;;;;;;;13.46;87.88;97203.97;5014441;28;20037;-65
2021/08/24 07:59:33;;;;;;;4.47;2.80;;;;;;;13.42;86.67;97199.59;5022628;28;20042;-64
2021/08/24 08:01:59;;;;;;;4.88;2.67;;;;;;;13.45;87.39;97196.88;5022548;28;20475;-64
2021/08/24 08:04:27;;;;;;;4.40;2.58;;;;;;;13.36;86.99;97202.66;5017134;28;20103;-66
2021/08/24 08:06:52;;;;;;;6.60;2.85;;;;;;;13.38;87.33;97207.81;5020580;28;20052;-65
2021/08/24 08:09:21;;;;;;;9.35;3.05;;;;;;;13.45;87.64;97210.66;5001064;28;20498;-66
2021/08/24 08:11:49;;;;;;;5.32;2.67;;;;;;;13.63;87.59;97210.88;5001295;28;20053;-66
2021/08/24 08:14:15;;;;;;;5.03;2.47;;;;;;;13.79;85.14;97209.88;4994486;28;20115;-66
2021/08/24 08:16:41;;;;;;;5.32;2.50;;;;;;;13.42;85.73;97210.59;5001944;28;20038;-66
2021/08/24 08:19:06;;;;;;;6.63;2.50;;;;;;;13.30;86.53;97217.88;4996195;28;20157;-65
2021/08/24 08:21:35;;;;;;;5.35;2.55;;;;;;;13.39;87.35;97229.41;5003712;28;20168;-66
2021/08/24 08:24:01;;;;;;;4.80;2.55;;;;;;;13.36;85.69;97224.69;5008757;28;20061;-65
2021/08/24 08:26:31;;;;;;;4.85;2.38;;;;;;;13.49;86.41;97230.75;5003911;28;20746;-66
2021/08/24 08:28:56;;;;;;;5.43;3.03;;;;;;;13.33;85.65;97230.13;5003996;28;20164;-65
2021/08/24 08:31:24;;;;;;;10.55;4.55;;;;;;;13.50;85.27;97226.03;5004322;28;20877;-65
2021/08/24 08:33:51;;;;;;;7.78;3.33;;;;;;;13.33;85.30;97230.91;5005927;28;20517;-65
2021/08/24 08:36:17;;;;;;;6.25;3.38;;;;;;;13.17;85.07;97233.78;4996592;28;20041;-65
2021/08/24 08:38:43;;;;;;;5.05;2.60;;;;;;;13.28;86.21;97233.16;5014428;28;20038;-65
2021/08/24 08:41:23;;;;;;;9.45;3.30;;;;;;;13.10;85.78;97230.16;4996556;28;20514;-66
2021/08/24 08:43:57;;;;;;;4.93;3.20;;;;;;;13.14;86.24;97233.75;5004508;28;20037;-64
2021/08/24 08:46:31;;;;;;;7.10;2.78;;;;;;;13.20;86.67;97237.78;5004811;28;20053;-66
2021/08/24 08:49:12;;;;;;;9.30;3.50;;;;;;;13.38;87.10;97246.31;5016451;28;20060;-65
2021/08/24 08:51:47;;;;;;;6.28;3.22;;;;;;;13.31;85.88;97246.22;5020877;28;20038;-66
2021/08/24 08:54:23;;;;;;;6.75;3.10;;;;;;;13.36;84.91;97229.38;5015312;28;20043;-65
2021/08/24 08:57:02;;;;;;;4.93;2.90;;;;;;;13.33;86.14;97243.88;5018369;28;20073;-64
2021/08/24 08:59:37;;;;;;;8.50;3.03;;;;;;;13.51;85.30;97250.41;5003411;28;21037;-64
2021/08/24 09:02:36;;;;;;;8.88;3.03;;;;;;;13.60;85.12;97250.16;4992474;28;20073;-65
2021/08/24 09:05:05;;;;;;;5.40;2.87;;;;;;;13.43;85.07;97245.19;4997861;28;20054;-66
2021/08/24 09:07:41;;;;;;;6.03;3.00;;;;;;;13.60;84.14;97246.59;5008449;28;20321;-66
2021/08/24 09:10:12;;;;;;;6.40;3.13;;;;;;;13.68;84.55;97251.81;5003810;28;20356;-67
2021/08/24 09:12:38;;;;;;;7.35;2.90;;;;;;;13.92;82.42;97247.78;4983100;28;20141;-65
2021/08/24 09:15:07;;;;;;;6.25;3.10;;;;;;;13.72;82.79;97243.59;4995722;28;20132;-67
2021/08/24 09:17:38;;;;;;;4.63;3.00;;;;;;;13.81;83.80;97243.31;4982238;28;20038;-65
2021/08/24 09:20:16;;;;;;;6.00;3.22;;;;;;;13.80;83.55;97244.50;5003979;28;20049;-67
2021/08/24 09:22:43;;;;;;;6.75;3.20;;;;;;;13.89;82.81;97243.03;5001463;28;20521;-66
2021/08/24 09:25:16;;;;;;;6.25;3.10;;;;;;;13.73;83.29;97234.97;5015831;28;20049;-66
2021/08/24 09:27:47;;;;;;;7.22;3.20;;;;;;;13.90;82.82;97236.38;5019772;28;20087;-64
2021/08/24 09:30:15;;;;;;;8.00;2.97;;;;;;;13.77;83.06;97229.50;5015283;28;20051;-65
2021/08/24 09:32:40;;;;;;;5.93;2.83;;;;;;;13.87;83.84;97239.88;5016347;28;20053;-64
2021/08/24 09:35:45;;;;;;;7.22;3.08;;;;;;;14.05;84.23;97248.34;5001449;28;20399;-66
2021/08/24 09:38:18;;;;;;;3.58;2.38;;;;;;;14.02;83.41;97246.31;4998582;28;20054;-65
2021/08/24 09:40:47;;;;;;;6.93;3.50;;;;;;;14.06;83.91;97246.38;4982035;28;20140;-65
2021/08/24 09:43:30;;;;;;;6.43;3.15;;;;;;;13.86;83.40;97241.03;5000694;28;21788;-64
2021/08/24 09:46:06;;;;;;;7.40;2.50;;;;;;;13.91;83.88;97240.69;4997373;28;20053;-65
2021/08/24 09:48:49;;;;;;;6.68;3.10;;;;;;;13.96;84.01;97250.59;4999957;28;20045;-65
2021/08/24 09:51:34;;;;;;;4.55;2.72;;;;;;;14.11;83.12;97248.78;4998559;28;20201;-63
2021/08/24 09:54:01;;;;;;;6.05;2.63;;;;;;;14.34;82.58;97249.44;5004088;28;20034;-64
2021/08/24 09:56:33;;;;;;;5.88;2.60;;;;;;;14.52;82.36;97254.34;4997333;28;20318;-64
2021/08/24 09:58:59;;;;;;;7.32;2.80;;;;;;;14.67;80.22;97244.25;5009114;28;20069;-64
2021/08/24 10:01:46;;;;;;;4.50;2.45;;;;;;;14.76;81.34;97236.47;4994353;28;20471;-65
2021/08/24 10:04:11;;;;;;;5.18;2.63;;;;;;;14.49;80.63;97238.56;4994243;28;20042;-64
2021/08/24 10:06:53;;;;;;;13.02;5.68;;;;;;;14.52;81.59;97233.06;5004623;28;20045;-65
2021/08/24 10:09:27;;;;;;;4.10;2.95;;;;;;;14.52;79.48;97222.03;4998140;28;20050;-63
2021/08/24 10:12:22;;;;;;;5.40;2.95;;;;;;;14.71;80.31;97229.34;5011359;28;20045;-64
2021/08/24 10:14:51;;;;;;;5.25;2.60;;;;;;;14.81;79.26;97222.31;5002815;28;20502;-66
2021/08/24 10:17:29;;;;;;;4.75;3.05;;;;;;;15.27;78.73;97219.09;5003041;28;20041;-66
2021/08/24 10:19:57;;;;;;;4.75;2.50;;;;;;;15.22;78.29;97216.72;5011809;28;20048;-66
2021/08/24 10:22:26;;;;;;;5.28;2.42;;;;;;;15.33;76.95;97218.75;5015034;28;20052;-64
2021/08/24 10:25:18;;;;;;;5.75;2.60;;;;;;;15.22;77.25;97213.16;5008061;28;20104;-64
2021/08/24 10:27:56;;;;;;;5.47;2.97;;;;;;;15.56;77.52;97208.22;4999930;28;20077;-65
2021/08/24 10:31:01;;;;;;;3.40;2.35;;;;;;;16.47;73.91;97207.31;4993689;28;20038;-64
2021/08/24 10:33:36;;;;;;;7.07;2.53;;;;;;;16.34;72.53;97203.38;4963840;28;20033;-65
2021/08/24 10:36:20;;;;;;;5.00;2.55;;;;;;;15.42;75.53;97208.16;4985515;28;20038;-63
2021/08/24 10:38:55;;;;;;;4.65;2.60;;;;;;;15.39;77.51;97208.91;4999849;28;20169;-65
2021/08/24 10:41:34;;;;;;;4.32;2.42;;;;;;;15.71;77.47;97202.78;5001034;28;20049;-65
2021/08/24 10:44:08;;;;;;;3.90;2.50;;;;;;;15.84;76.13;97201.25;5006545;28;20057;-67
2021/08/24 10:46:46;;;;;;;6.18;3.28;;;;;;;16.09;75.42;97195.81;5005352;28;20042;-65
2021/08/24 10:49:11;;;;;;;3.92;2.10;;;;;;;16.68;73.68;97195.50;5002172;28;20824;-65
2021/08/24 10:52:00;;;;;;;5.13;2.08;;;;;;;16.32;72.84;97192.69;5007936;28;20061;-65
2021/08/24 10:54:55;;;;;;;3.70;2.20;;;;;;;16.74;73.79;97198.66;4995319;28;20042;-65
2021/08/24 10:57:44;;;;;;;4.35;2.67;;;;;;;16.15;75.04;97183.22;4995461;28;20046;-66
2021/08/24 11:00:12;;;;;;;5.20;2.53;;;;;;;16.10;74.21;97178.06;4997314;28;20192;-63
2021/08/24 11:02:51;;;;;;;7.80;3.20;;;;;;;16.34;75.01;97184.03;5004634;28;20503;-64
2021/08/24 11:05:25;;;;;;;4.55;2.53;;;;;;;16.31;76.35;97184.81;4979519;28;20046;-65
2021/08/24 11:08:16;;;;;;;5.43;2.75;;;;;;;16.61;75.34;97182.44;5007746;28;20038;-67
2021/08/24 11:11:20;;;;;;;4.47;2.33;;;;;;;16.95;71.46;97171.00;5001891;28;20034;-67
2021/08/24 11:13:55;;;;;;;4.25;2.50;;;;;;;16.91;73.14;97177.75;5005633;28;20038;-66
2021/08/24 11:16:55;;;;;;;5.75;2.72;;;;;;;16.82;74.31;97170.59;4999271;28;20536;-65
2021/08/24 11:19:44;;;;;;;7.22;2.70;;;;;;;16.97;71.90;97178.91;4999226;28;20042;-65
2021/08/24 11:22:42;;;;;;;7.82;2.65;;;;;;;16.22;75.13;97179.66;5010396;28;20478;-65
2021/08/24 11:25:41;;;;;;;5.53;3.10;;;;;;;16.20;75.51;97176.50;5010034;28;20056;-64
2021/08/24 11:28:36;;;;;;;4.35;2.83;;;;;;;16.32;74.91;97172.56;4999808;28;20072;-66
2021/08/24 11:31:20;;;;;;;7.40;2.83;;;;;;;16.23;74.97;97172.94;5003378;28;20045;-65
2021/08/24 11:34:07;;;;;;;4.93;3.20;;;;;;;16.60;75.04;97180.06;4986332;28;20042;-66
2021/08/24 11:36:39;;;;;;;4.28;2.95;;;;;;;16.60;74.60;97172.59;5012627;28;20052;-66
2021/08/24 11:39:17;;;;;;;5.20;3.03;;;;;;;16.50;75.44;97172.59;5002096;28;20060;-62
2021/08/24 11:41:45;;;;;;;4.85;2.85;;;;;;;16.30;74.81;97169.41;5009204;28;20045;-66
2021/08/24 11:44:36;;;;;;;6.85;3.00;;;;;;;16.38;75.85;97182.81;5003060;28;20103;-65
2021/08/24 11:47:10;;;;;;;5.68;3.60;;;;;;;16.33;74.18;97174.13;5021808;28;20050;-65
2021/08/24 11:49:59;;;;;;;6.85;3.40;;;;;;;16.34;74.83;97178.50;5021671;28;20525;-64
2021/08/24 11:52:43;;;;;;;6.70;3.63;;;;;;;16.95;72.67;97178.53;5005274;28;20056;-65